Time;durP1;ratioP1;P1;durP2;ratioP2;P2;SDS_P1;SDS_P2;PMS_P1;PMS_P2;Temp;Humidity;BMP_temperature;BMP_pressure;BME280_temperature;BME280_humidity;BME280_pressure;Samples;Min_cycle;Max_cycle;Signal;HPM_P1;HPM_P2
2022/04/28 00:01:40;;;;;;;17.75;10.38;;;;;;;;;;5087915;28;20028;-78
2022/04/28 00:04:05;;;;;;;21.90;12.57;;;;;;;;;;5089700;28;20028;-78
2022/04/28 00:06:31;;;;;;;19.65;12.18;;;;;;;;;;5089468;28;20494;-78
2022/04/28 00:08:56;;;;;;;17.98;11.35;;;;;;;;;;5090074;28;20089;-78
2022/04/28 00:11:21;;;;;;;23.63;12.57;;;;;;;;;;5088892;28;20023;-76
2022/04/28 00:13:47;;;;;;;21.88;12.60;;;;;;;;;;5088005;28;20097;-76
2022/04/28 00:16:12;;;;;;;19.03;11.27;;;;;;;;;;5088199;28;20130;-77
2022/04/28 00:18:38;;;;;;;19.93;11.70;;;;;;;;;;5089137;28;20031;-77
2022/04/28 00:21:03;;;;;;;24.83;11.83;;;;;;;;;;5089488;28;20466;-78
2022/04/28 00:23:29;;;;;;;25.87;12.00;;;;;;;;;;5087486;28;20058;-79
2022/04/28 00:25:54;;;;;;;25.37;13.30;;;;;;;;;;5089846;28;20032;-77
2022/04/28 00:28:20;;;;;;;21.93;12.47;;;;;;;;;;5089262;28;20039;-77
2022/04/28 00:30:46;;;;;;;23.83;12.10;;;;;;;;;;5088481;28;20107;-77
2022/04/28 00:33:11;;;;;;;22.70;11.70;;;;;;;;;;5090963;28;20038;-77
2022/04/28 00:35:38;;;;;;;21.27;12.37;;;;;;;;;;5091795;28;20429;-77
2022/04/28 00:38:04;;;;;;;21.73;12.77;;;;;;;;;;5093083;28;20466;-77
2022/04/28 00:40:30;;;;;;;28.10;12.20;;;;;;;;;;5092809;28;20480;-78
2022/04/28 00:43:19;;;;;;;24.17;12.80;;;;;;;;;;5093022;28;20115;-77
2022/04/28 00:45:49;;;;;;;22.50;12.87;;;;;;;;;;5086149;28;20039;-78
2022/04/28 00:51:02;;;;;;;38.20;20.90;;;;;;;;;;5093737;28;20065;-77
2022/04/28 00:53:33;;;;;;;24.13;14.93;;;;;;;;;;5092881;28;20513;-76
2022/04/28 00:55:59;;;;;;;23.83;13.40;;;;;;;;;;5093620;28;20034;-78
2022/04/28 00:58:26;;;;;;;21.77;13.00;;;;;;;;;;5093068;28;20063;-77
2022/04/28 01:00:55;;;;;;;20.87;12.53;;;;;;;;;;5091594;28;20476;-77
2022/04/28 01:03:21;;;;;;;19.60;11.97;;;;;;;;;;5091984;28;20032;-78
2022/04/28 01:05:47;;;;;;;18.53;12.17;;;;;;;;;;5090754;28;20032;-76
2022/04/28 01:08:13;;;;;;;20.80;12.03;;;;;;;;;;5092717;28;20027;-77
2022/04/28 01:10:39;;;;;;;20.37;11.37;;;;;;;;;;5092422;28;20032;-76
2022/04/28 01:13:05;;;;;;;22.83;11.73;;;;;;;;;;5092129;28;20400;-77
2022/04/28 01:15:47;;;;;;;25.73;12.00;;;;;;;;;;5091207;28;20760;-76
2022/04/28 01:18:14;;;;;;;26.00;11.33;;;;;;;;;;5086061;28;20119;-77
2022/04/28 01:20:40;;;;;;;25.70;13.27;;;;;;;;;;5091727;28;20440;-76
2022/04/28 01:23:06;;;;;;;23.67;13.03;;;;;;;;;;5091789;28;20116;-77
2022/04/28 01:25:33;;;;;;;20.50;12.20;;;;;;;;;;5090479;28;20467;-78
2022/04/28 01:27:59;;;;;;;27.07;11.97;;;;;;;;;;5092826;28;20036;-77
2022/04/28 01:30:25;;;;;;;17.67;11.43;;;;;;;;;;5091759;28;20115;-77
2022/04/28 01:32:51;;;;;;;20.83;11.97;;;;;;;;;;5090490;28;20119;-78
2022/04/28 01:35:17;;;;;;;19.77;11.50;;;;;;;;;;5092679;28;20486;-77
2022/04/28 01:37:43;;;;;;;24.33;12.20;;;;;;;;;;5089867;28;20123;-77
2022/04/28 01:40:11;;;;;;;22.20;11.97;;;;;;;;;;5092042;28;20118;-76
2022/04/28 01:42:45;;;;;;;18.73;11.33;;;;;;;;;;5090040;28;20543;-77
2022/04/28 01:45:11;;;;;;;19.70;12.20;;;;;;;;;;5090225;28;20032;-77
2022/04/28 01:47:37;;;;;;;19.30;10.90;;;;;;;;;;5090046;28;20032;-77
2022/04/28 01:50:04;;;;;;;22.97;10.87;;;;;;;;;;5091827;28;20119;-76
2022/04/28 01:55:14;;;;;;;18.23;11.63;;;;;;;;;;5092459;28;20061;-76
2022/04/28 01:57:39;;;;;;;21.47;12.33;;;;;;;;;;5090416;28;20446;-77
2022/04/28 02:00:06;;;;;;;18.83;10.47;;;;;;;;;;5092098;28;20023;-77
2022/04/28 02:02:33;;;;;;;23.07;11.87;;;;;;;;;;5090282;28;20035;-77
2022/04/28 02:04:59;;;;;;;19.30;11.23;;;;;;;;;;5090971;28;20370;-77
2022/04/28 02:07:28;;;;;;;26.70;11.93;;;;;;;;;;5089363;28;20020;-78
2022/04/28 02:09:54;;;;;;;24.23;10.70;;;;;;;;;;5089645;28;20494;-78
2022/04/28 02:12:19;;;;;;;21.83;11.80;;;;;;;;;;5089009;28;20028;-78
2022/04/28 02:14:46;;;;;;;21.43;11.13;;;;;;;;;;5091060;28;20414;-78
2022/04/28 02:17:18;;;;;;;21.50;11.83;;;;;;;;;;5089954;28;20380;-77
2022/04/28 02:19:43;;;;;;;;;;;;;;;;;;5091734;28;20114;-78
2022/04/28 02:22:09;;;;;;;18.47;10.77;;;;;;;;;;5091262;28;20002;-78
2022/04/28 02:24:35;;;;;;;20.97;11.53;;;;;;;;;;5091324;28;20028;-78
2022/04/28 02:27:00;;;;;;;20.77;12.23;;;;;;;;;;5090881;28;20016;-77
2022/04/28 02:29:26;;;;;;;19.90;10.77;;;;;;;;;;5090860;28;20031;-77
2022/04/28 02:31:51;;;;;;;20.97;12.20;;;;;;;;;;5090833;28;20032;-77
2022/04/28 02:34:17;;;;;;;19.13;11.83;;;;;;;;;;5089438;28;20027;-77
2022/04/28 02:36:42;;;;;;;25.73;11.90;;;;;;;;;;5090275;28;20111;-76
2022/04/28 02:39:09;;;;;;;19.17;11.47;;;;;;;;;;5089516;28;20023;-77
2022/04/28 02:41:36;;;;;;;21.60;12.00;;;;;;;;;;5088485;28;20047;-76
2022/04/28 02:44:01;;;;;;;22.50;12.40;;;;;;;;;;5090252;28;20127;-77
2022/04/28 02:46:27;;;;;;;20.07;11.33;;;;;;;;;;5088628;28;20552;-77
2022/04/28 02:48:52;;;;;;;19.37;11.53;;;;;;;;;;5090048;28;20020;-78
2022/04/28 02:51:18;;;;;;;23.03;11.67;;;;;;;;;;5090017;28;20587;-77
2022/04/28 02:53:43;;;;;;;49.93;28.33;;;;;;;;;;5088441;28;20051;-76
2022/04/28 02:56:09;;;;;;;23.83;12.00;;;;;;;;;;5087956;28;20509;-77
2022/04/28 02:58:34;;;;;;;24.07;12.67;;;;;;;;;;5089741;28;20092;-78
2022/04/28 03:01:01;;;;;;;24.30;11.90;;;;;;;;;;5090654;28;20036;-78
2022/04/28 03:03:26;;;;;;;19.20;12.10;;;;;;;;;;5089206;28;20437;-77
2022/04/28 03:11:20;;;;;;;38.00;13.27;;;;;;;;;;5077125;28;20042;-77
2022/04/28 03:13:45;;;;;;;19.57;11.43;;;;;;;;;;5090186;28;20036;-79
2022/04/28 03:16:12;;;;;;;25.57;12.57;;;;;;;;;;5090878;28;20416;-77
2022/04/28 03:18:38;;;;;;;30.20;11.97;;;;;;;;;;5088916;28;20047;-77
2022/04/28 03:21:05;;;;;;;21.20;11.87;;;;;;;;;;5083029;28;20032;-79
2022/04/28 03:23:31;;;;;;;24.40;11.80;;;;;;;;;;5088465;28;20039;-76
2022/04/28 03:25:56;;;;;;;24.40;12.23;;;;;;;;;;5089041;28;20462;-77
2022/04/28 03:28:22;;;;;;;18.53;11.83;;;;;;;;;;5082388;28;20036;-78
2022/04/28 03:30:49;;;;;;;17.77;10.83;;;;;;;;;;5082183;28;20076;-77
2022/04/28 03:33:16;;;;;;;23.90;13.33;;;;;;;;;;5087999;28;20034;-76
2022/04/28 03:35:42;;;;;;;21.40;12.03;;;;;;;;;;5081821;28;20032;-76
2022/04/28 03:38:11;;;;;;;25.23;11.67;;;;;;;;;;5088947;28;20391;-77
2022/04/28 03:40:38;;;;;;;16.50;10.70;;;;;;;;;;5083241;28;20536;-77
2022/04/28 03:43:17;;;;;;;17.93;10.97;;;;;;;;;;5074457;28;20158;-75
2022/04/28 03:45:43;;;;;;;20.90;11.33;;;;;;;;;;5069914;28;20037;-75
2022/04/28 03:48:09;;;;;;;21.30;11.57;;;;;;;;;;5088384;28;20569;-77
2022/04/28 03:50:35;;;;;;;30.10;16.03;;;;;;;;;;5088357;28;20024;-76
2022/04/28 03:53:01;;;;;;;23.63;12.60;;;;;;;;;;5088443;28;20116;-78
2022/04/28 03:55:27;;;;;;;21.53;11.33;;;;;;;;;;5088253;28;20384;-77
2022/04/28 03:57:53;;;;;;;25.77;12.30;;;;;;;;;;5089654;28;20035;-76
2022/04/28 04:00:19;;;;;;;21.20;11.87;;;;;;;;;;5089743;28;20046;-77
2022/04/28 04:02:45;;;;;;;19.37;10.33;;;;;;;;;;5087993;28;20028;-78
2022/04/28 04:05:11;;;;;;;15.63;9.60;;;;;;;;;;5089760;28;20409;-77
2022/04/28 04:07:39;;;;;;;20.30;11.33;;;;;;;;;;5091865;28;20123;-78
2022/04/28 04:10:07;;;;;;;22.80;10.87;;;;;;;;;;5092798;28;20518;-77
2022/04/28 04:12:33;;;;;;;22.23;11.20;;;;;;;;;;5092162;28;20407;-77
2022/04/28 04:14:59;;;;;;;21.53;11.73;;;;;;;;;;5093322;28;20123;-76
2022/04/28 04:17:25;;;;;;;23.40;12.13;;;;;;;;;;5092122;28;20050;-77
2022/04/28 04:19:50;;;;;;;16.73;10.60;;;;;;;;;;5093387;28;20036;-76
2022/04/28 04:22:16;;;;;;;20.90;10.70;;;;;;;;;;5090153;28;20081;-77
2022/04/28 04:24:42;;;;;;;22.93;11.40;;;;;;;;;;5091055;28;20381;-77
2022/04/28 04:27:09;;;;;;;24.80;13.17;;;;;;;;;;5091686;28;20035;-76
2022/04/28 04:29:38;;;;;;;20.60;11.70;;;;;;;;;;5093906;28;20539;-78
2022/04/28 04:32:20;;;;;;;20.10;11.50;;;;;;;;;;5093477;28;20435;-78
2022/04/28 04:34:47;;;;;;;23.73;12.10;;;;;;;;;;5091666;28;20023;-77
2022/04/28 04:37:13;;;;;;;21.97;12.10;;;;;;;;;;5093110;28;20520;-75
2022/04/28 04:39:40;;;;;;;24.00;12.03;;;;;;;;;;5092418;28;20556;-77
2022/04/28 04:42:06;;;;;;;21.80;11.77;;;;;;;;;;5082215;28;20365;-73
2022/04/28 04:44:32;;;;;;;23.33;12.03;;;;;;;;;;5082647;28;20111;-77
2022/04/28 04:46:57;;;;;;;21.77;11.97;;;;;;;;;;5092413;28;20102;-77
2022/04/28 04:49:23;;;;;;;20.87;11.50;;;;;;;;;;5093132;28;20032;-78
2022/04/28 04:51:49;;;;;;;19.00;11.73;;;;;;;;;;5092642;28;20043;-76
2022/04/28 04:54:14;;;;;;;22.13;12.63;;;;;;;;;;5092091;28;20507;-78
2022/04/28 04:56:40;;;;;;;24.63;14.17;;;;;;;;;;5085920;28;20028;-77
2022/04/28 04:59:05;;;;;;;24.70;12.07;;;;;;;;;;5088041;28;20051;-78
2022/04/28 05:01:31;;;;;;;19.63;12.17;;;;;;;;;;5091139;28;20057;-76
2022/04/28 05:03:56;;;;;;;22.93;12.93;;;;;;;;;;5093306;28;20452;-78
2022/04/28 05:06:22;;;;;;;19.30;11.20;;;;;;;;;;5093413;28;20038;-75
2022/04/28 05:08:47;;;;;;;21.20;13.03;;;;;;;;;;5085722;28;20028;-77
2022/04/28 05:11:13;;;;;;;20.93;11.77;;;;;;;;;;5076442;28;20036;-76
2022/04/28 05:13:39;;;;;;;28.03;12.93;;;;;;;;;;5077149;28;20101;-80
2022/04/28 05:16:05;;;;;;;24.70;13.60;;;;;;;;;;5087728;28;20474;-77
2022/04/28 05:18:31;;;;;;;22.20;12.27;;;;;;;;;;5079012;28;20530;-76
2022/04/28 05:20:58;;;;;;;24.53;11.93;;;;;;;;;;5082058;28;20028;-76
2022/04/28 05:23:23;;;;;;;21.10;12.77;;;;;;;;;;5085320;28;20031;-78
2022/04/28 05:25:49;;;;;;;19.87;12.77;;;;;;;;;;5086152;28;20384;-81
2022/04/28 05:28:14;;;;;;;17.40;11.20;;;;;;;;;;5081588;28;20036;-77
2022/04/28 05:30:40;;;;;;;24.27;12.30;;;;;;;;;;5083566;28;20040;-77
2022/04/28 05:33:06;;;;;;;20.27;11.33;;;;;;;;;;5082612;28;20028;-78
2022/04/28 05:35:35;;;;;;;23.83;15.03;;;;;;;;;;5088113;28;20042;-78
2022/04/28 05:38:01;;;;;;;26.10;13.63;;;;;;;;;;5086535;28;20446;-76
2022/04/28 05:40:26;;;;;;;24.10;12.53;;;;;;;;;;5081980;28;20032;-76
2022/04/28 05:45:42;;;;;;;21.90;12.43;;;;;;;;;;5082363;28;20475;-76
2022/04/28 05:48:12;;;;;;;23.67;12.68;;;;;;;;;;5080979;28;20032;-78
2022/04/28 05:50:39;;;;;;;18.83;12.00;;;;;;;;;;5090219;28;20507;-79
2022/04/28 05:53:05;;;;;;;25.27;12.10;;;;;;;;;;5087760;28;20472;-75
2022/04/28 05:55:30;;;;;;;21.73;13.70;;;;;;;;;;5089813;28;20032;-77
2022/04/28 05:58:00;;;;;;;20.40;11.60;;;;;;;;;;5091587;28;20031;-77
2022/04/28 06:00:30;;;;;;;25.83;11.63;;;;;;;;;;5087892;28;20368;-76
2022/04/28 06:02:56;;;;;;;19.50;11.17;;;;;;;;;;5074493;28;20024;-77
2022/04/28 06:05:22;;;;;;;22.00;11.37;;;;;;;;;;5085711;28;20032;-79
2022/04/28 06:07:49;;;;;;;19.23;11.90;;;;;;;;;;5094133;28;20036;-79
2022/04/28 06:12:57;;;;;;;20.83;12.10;;;;;;;;;;5089368;28;20105;-75
2022/04/28 06:15:23;;;;;;;47.90;23.67;;;;;;;;;;5084595;28;20028;-77
2022/04/28 06:17:48;;;;;;;26.07;14.03;;;;;;;;;;5082073;28;20035;-77
2022/04/28 06:20:14;;;;;;;20.70;11.77;;;;;;;;;;5083182;28;20390;-76
2022/04/28 06:22:39;;;;;;;20.10;11.30;;;;;;;;;;5083571;28;20115;-78
2022/04/28 06:25:05;;;;;;;19.63;10.93;;;;;;;;;;5081578;28;20793;-76
2022/04/28 06:27:31;;;;;;;16.95;11.23;;;;;;;;;;5084316;28;20043;-81
2022/04/28 06:29:59;;;;;;;13.98;9.98;;;;;;;;;;5082856;28;20140;-80
2022/04/28 06:32:25;;;;;;;14.13;8.90;;;;;;;;;;5078809;28;20044;-79
2022/04/28 06:34:54;;;;;;;13.57;8.73;;;;;;;;;;5084641;28;20802;-79
2022/04/28 06:37:24;;;;;;;14.40;9.68;;;;;;;;;;5082962;28;20128;-80
2022/04/28 06:39:50;;;;;;;18.57;9.60;;;;;;;;;;5082592;28;20372;-77
2022/04/28 06:42:16;;;;;;;13.27;9.40;;;;;;;;;;5080112;28;20039;-77
2022/04/28 06:44:43;;;;;;;18.73;10.13;;;;;;;;;;5081388;28;20779;-80
2022/04/28 06:47:10;;;;;;;14.50;9.32;;;;;;;;;;5080462;28;20031;-81
2022/04/28 06:49:37;;;;;;;21.48;10.05;;;;;;;;;;5086620;28;20069;-80
2022/04/28 06:52:06;;;;;;;13.38;8.25;;;;;;;;;;5083382;28;20103;-80
2022/04/28 06:54:32;;;;;;;14.57;8.38;;;;;;;;;;5067226;28;20028;-78
2022/04/28 06:57:02;;;;;;;18.30;9.18;;;;;;;;;;5086544;28;20035;-78
2022/04/28 06:59:28;;;;;;;17.38;9.93;;;;;;;;;;5080442;28;20031;-78
2022/04/28 07:02:00;;;;;;;17.30;9.25;;;;;;;;;;5085549;28;20042;-79
2022/04/28 07:04:26;;;;;;;14.80;8.80;;;;;;;;;;5078415;28;20693;-76
2022/04/28 07:06:53;;;;;;;15.43;7.80;;;;;;;;;;5081342;28;20127;-76
2022/04/28 07:09:19;;;;;;;13.15;7.20;;;;;;;;;;5080283;28;20043;-78
2022/04/28 07:11:49;;;;;;;10.35;6.80;;;;;;;;;;5083050;28;20031;-73
2022/04/28 07:14:26;;;;;;;13.35;7.28;;;;;;;;;;5077063;28;20101;-77
2022/04/28 07:16:52;;;;;;;12.95;7.53;;;;;;;;;;5083578;28;20028;-78
2022/04/28 07:19:18;;;;;;;13.63;7.53;;;;;;;;;;5077914;28;20031;-77
2022/04/28 07:21:44;;;;;;;11.98;6.82;;;;;;;;;;5074396;28;20038;-76
2022/04/28 07:24:11;;;;;;;10.18;6.18;;;;;;;;;;5076089;28;20277;-76
2022/04/28 07:26:38;;;;;;;13.68;6.35;;;;;;;;;;5088779;28;20042;-77
2022/04/28 07:29:05;;;;;;;9.98;6.57;;;;;;;;;;5084038;28;20194;-76
2022/04/28 07:31:32;;;;;;;8.13;5.82;;;;;;;;;;5084831;28;20099;-78
2022/04/28 07:33:58;;;;;;;8.68;5.55;;;;;;;;;;5074551;28;20024;-76
2022/04/28 07:36:25;;;;;;;17.58;7.43;;;;;;;;;;5077865;28;20028;-79
2022/04/28 07:38:52;;;;;;;11.88;5.40;;;;;;;;;;5065654;28;20032;-79
2022/04/28 07:41:18;;;;;;;9.82;5.32;;;;;;;;;;5080809;28;20047;-79
2022/04/28 07:43:45;;;;;;;9.30;5.95;;;;;;;;;;5085528;28;20036;-79
2022/04/28 07:46:12;;;;;;;9.85;5.20;;;;;;;;;;5088852;28;20119;-78
2022/04/28 07:48:41;;;;;;;9.05;4.30;;;;;;;;;;5086030;28;20039;-78
2022/04/28 07:51:13;;;;;;;8.32;5.05;;;;;;;;;;5088987;28;20077;-76
2022/04/28 07:53:39;;;;;;;;;;;;;;;;;;5079511;28;20036;-76
2022/04/28 07:56:10;;;;;;;9.35;4.90;;;;;;;;;;5086723;28;19958;-77
2022/04/28 07:58:38;;;;;;;7.93;5.03;;;;;;;;;;5085173;28;20328;-76
2022/04/28 08:01:05;;;;;;;9.80;4.75;;;;;;;;;;5087246;28;20040;-79
2022/04/28 08:03:43;;;;;;;11.48;5.05;;;;;;;;;;5083641;28;20016;-80
2022/04/28 08:06:15;;;;;;;7.75;4.50;;;;;;;;;;5086898;28;20103;-78
2022/04/28 08:08:42;;;;;;;8.27;4.38;;;;;;;;;;5084549;28;20367;-75
2022/04/28 08:11:09;;;;;;;7.38;4.65;;;;;;;;;;5070307;28;20032;-77
2022/04/28 08:13:38;;;;;;;10.02;4.45;;;;;;;;;;5086968;28;20048;-78
2022/04/28 08:16:04;;;;;;;6.38;4.30;;;;;;;;;;5087864;28;20570;-77
2022/04/28 08:18:35;;;;;;;7.50;4.30;;;;;;;;;;5083569;28;20476;-78
2022/04/28 08:21:08;;;;;;;10.48;4.93;;;;;;;;;;5086426;28;20024;-77
2022/04/28 08:23:36;;;;;;;9.57;4.93;;;;;;;;;;5080473;28;20036;-79
2022/04/28 08:26:06;;;;;;;9.38;4.65;;;;;;;;;;5087381;28;20506;-79
2022/04/28 08:28:32;;;;;;;27.73;7.85;;;;;;;;;;5087622;28;20463;-75
2022/04/28 08:30:58;;;;;;;9.82;5.00;;;;;;;;;;5084243;28;20029;-76
2022/04/28 08:33:25;;;;;;;9.55;4.70;;;;;;;;;;5083000;28;20380;-77
2022/04/28 08:35:52;;;;;;;7.80;4.07;;;;;;;;;;5082710;28;20086;-80
2022/04/28 08:38:24;;;;;;;11.60;4.60;;;;;;;;;;5084935;28;20028;-78
2022/04/28 08:41:00;;;;;;;8.73;3.67;;;;;;;;;;5084743;28;20024;-75
2022/04/28 08:43:31;;;;;;;5.65;2.88;;;;;;;;;;5080160;28;20115;-79
2022/04/28 08:48:56;;;;;;;7.50;4.15;;;;;;;;;;5081016;28;20109;-80
2022/04/28 08:51:27;;;;;;;7.78;4.10;;;;;;;;;;5084953;28;20027;-78
2022/04/28 08:53:57;;;;;;;5.50;3.20;;;;;;;;;;5065891;28;20451;-78
2022/04/28 08:56:24;;;;;;;10.93;4.38;;;;;;;;;;5084259;28;20284;-78
2022/04/28 08:58:56;;;;;;;10.10;3.92;;;;;;;;;;5089628;28;20043;-79
2022/04/28 09:01:27;;;;;;;10.25;4.93;;;;;;;;;;5084704;28;20035;-77
2022/04/28 09:03:57;;;;;;;11.98;5.00;;;;;;;;;;5082712;28;20050;-78
2022/04/28 09:06:28;;;;;;;8.98;4.15;;;;;;;;;;5084438;28;21226;-81
2022/04/28 09:08:55;;;;;;;7.22;3.95;;;;;;;;;;5085054;28;20028;-80
2022/04/28 09:11:31;;;;;;;7.00;5.30;;;;;;;;;;5084720;28;20581;-82
2022/04/28 09:14:18;;;;;;;8.88;4.30;;;;;;;;;;5083305;28;20566;-79
2022/04/28 09:16:48;;;;;;;8.60;4.72;;;;;;;;;;5082337;28;20232;-80
2022/04/28 09:19:33;;;;;;;8.48;4.00;;;;;;;;;;5087678;28;20036;-79
2022/04/28 09:22:05;;;;;;;7.20;3.78;;;;;;;;;;5087894;28;20114;-79
2022/04/28 09:24:34;;;;;;;5.60;3.88;;;;;;;;;;5084271;28;20028;-81
2022/04/28 09:27:07;;;;;;;15.65;6.30;;;;;;;;;;5082229;28;20036;-81
2022/04/28 09:29:36;;;;;;;10.65;5.65;;;;;;;;;;5086276;28;20113;-81
2022/04/28 09:32:06;;;;;;;8.27;4.63;;;;;;;;;;5081626;28;20032;-78
2022/04/28 09:34:33;;;;;;;7.57;4.70;;;;;;;;;;5082045;28;20039;-81
2022/04/28 09:36:59;;;;;;;8.00;4.90;;;;;;;;;;5084248;28;20032;-78
2022/04/28 09:42:31;;;;;;;8.23;5.00;;;;;;;;;;5083559;28;20055;-79
2022/04/28 09:44:59;;;;;;;17.67;5.20;;;;;;;;;;5081209;28;20036;-78
2022/04/28 09:47:30;;;;;;;11.90;5.40;;;;;;;;;;5084885;28;20418;-79
2022/04/28 09:49:56;;;;;;;;;;;;;;;;;;5083018;28;20039;-79
2022/04/28 09:52:25;;;;;;;7.80;4.88;;;;;;;;;;5079836;28;19973;-78
2022/04/28 09:54:53;;;;;;;9.75;5.32;;;;;;;;;;5078753;28;20346;-78
2022/04/28 09:57:21;;;;;;;10.15;5.95;;;;;;;;;;5085156;28;20016;-78
2022/04/28 09:59:53;;;;;;;15.23;5.80;;;;;;;;;;5083411;28;20056;-82
2022/04/28 10:02:22;;;;;;;9.43;5.50;;;;;;;;;;5086448;28;20030;-77
2022/04/28 10:04:49;;;;;;;8.60;5.45;;;;;;;;;;5080478;28;20032;-79
2022/04/28 10:07:19;;;;;;;7.95;5.43;;;;;;;;;;5087051;28;20206;-80
2022/04/28 10:09:47;;;;;;;9.25;6.45;;;;;;;;;;5080462;28;20271;-80
2022/04/28 10:12:18;;;;;;;7.93;5.20;;;;;;;;;;5082965;28;20052;-80
2022/04/28 10:14:49;;;;;;;11.18;5.18;;;;;;;;;;5085963;28;20032;-78
2022/04/28 10:17:38;;;;;;;13.95;5.53;;;;;;;;;;5085902;28;20031;-78
2022/04/28 10:20:37;;;;;;;10.57;4.97;;;;;;;;;;5081251;28;20036;-80
2022/04/28 10:23:11;;;;;;;7.88;4.80;;;;;;;;;;5085561;28;20085;-76
2022/04/28 10:34:31;;;;;;;11.63;4.93;;;;;;;;;;5079978;28;20055;-79
2022/04/28 10:36:59;;;;;;;10.70;5.65;;;;;;;;;;5082062;28;20039;-79
2022/04/28 10:39:43;;;;;;;11.32;5.57;;;;;;;;;;5080375;28;20211;-79
2022/04/28 10:42:21;;;;;;;9.18;4.45;;;;;;;;;;5082091;28;20710;-81
2022/04/28 10:45:04;;;;;;;5.53;4.78;;;;;;;;;;5085963;28;20569;-80
2022/04/28 10:47:41;;;;;;;7.30;4.03;;;;;;;;;;5081441;28;20081;-78
2022/04/28 10:50:35;;;;;;;11.65;7.03;;;;;;;;;;5083888;28;20365;-81
2022/04/28 10:53:05;;;;;;;7.10;5.07;;;;;;;;;;5082182;28;20035;-80
2022/04/28 10:55:40;;;;;;;7.72;4.63;;;;;;;;;;5078929;28;20066;-79
2022/04/28 10:58:27;;;;;;;9.73;4.38;;;;;;;;;;5082003;28;20035;-82
2022/04/28 11:01:07;;;;;;;8.15;4.20;;;;;;;;;;5067955;28;20124;-84
2022/04/28 11:03:55;;;;;;;7.45;4.25;;;;;;;;;;5081648;28;20599;-82
2022/04/28 11:06:51;;;;;;;6.15;4.60;;;;;;;;;;5084782;28;20028;-80
2022/04/28 11:09:31;;;;;;;8.98;4.68;;;;;;;;;;5078358;28;20148;-78
2022/04/28 11:12:22;;;;;;;5.95;5.35;;;;;;;;;;5082186;28;20024;-83
2022/04/28 11:15:04;;;;;;;6.22;4.55;;;;;;;;;;5043563;28;20045;-83
2022/04/28 11:17:36;;;;;;;10.35;5.88;;;;;;;;;;5040292;28;20135;-75
2022/04/28 11:20:12;;;;;;;7.22;5.18;;;;;;;;;;5040381;28;20820;-77
2022/04/28 11:22:46;;;;;;;9.80;5.00;;;;;;;;;;5042232;28;20037;-78
2022/04/28 11:25:15;;;;;;;6.53;4.55;;;;;;;;;;5022873;28;20075;-78
2022/04/28 11:27:43;;;;;;;11.70;5.50;;;;;;;;;;5039965;28;21338;-76
2022/04/28 11:30:18;;;;;;;7.18;5.60;;;;;;;;;;5038636;28;20595;-77
2022/04/28 11:33:00;;;;;;;9.30;5.40;;;;;;;;;;5044240;28;20389;-82
2022/04/28 11:35:35;;;;;;;11.73;5.38;;;;;;;;;;5040716;28;20044;-78
2022/04/28 11:38:01;;;;;;;7.85;5.65;;;;;;;;;;5041073;28;20156;-78
2022/04/28 11:40:29;;;;;;;10.80;5.05;;;;;;;;;;5038644;28;20497;-82
2022/04/28 11:42:59;;;;;;;7.38;4.57;;;;;;;;;;5043841;28;20037;-78
2022/04/28 11:45:29;;;;;;;7.20;4.90;;;;;;;;;;5043485;28;20102;-79
2022/04/28 11:47:57;;;;;;;13.63;5.03;;;;;;;;;;5042756;28;20036;-79
2022/04/28 11:50:32;;;;;;;7.97;4.60;;;;;;;;;;5042888;28;20033;-79
2022/04/28 11:53:18;;;;;;;6.85;5.55;;;;;;;;;;5042854;28;20047;-78
2022/04/28 11:55:48;;;;;;;9.90;4.60;;;;;;;;;;5038811;28;20037;-80
2022/04/28 11:58:16;;;;;;;6.20;4.38;;;;;;;;;;5042487;28;20067;-78
2022/04/28 12:00:49;;;;;;;7.80;3.65;;;;;;;;;;5044842;28;20079;-80
2022/04/28 12:04:02;;;;;;;8.30;4.88;;;;;;;;;;5031320;28;20431;-82
2022/04/28 12:06:29;;;;;;;7.53;3.83;;;;;;;;;;5030161;28;20506;-79
2022/04/28 12:08:59;;;;;;;9.55;4.47;;;;;;;;;;5045120;28;20021;-79
2022/04/28 12:14:28;;;;;;;7.25;4.57;;;;;;;;;;5070705;28;20055;-79
2022/04/28 12:19:53;;;;;;;6.38;4.15;;;;;;;;;;5074716;28;20043;-79
2022/04/28 12:22:44;;;;;;;6.25;4.65;;;;;;;;;;5075100;28;20060;-78
2022/04/28 12:25:23;;;;;;;9.75;4.82;;;;;;;;;;5071754;28;20116;-82
2022/04/28 12:27:54;;;;;;;7.18;4.57;;;;;;;;;;5075700;28;20028;-80
2022/04/28 12:30:21;;;;;;;15.18;5.95;;;;;;;;;;5092216;28;20024;-77
2022/04/28 12:32:52;;;;;;;6.28;4.35;;;;;;;;;;5089269;28;20060;-79
2022/04/28 12:35:31;;;;;;;6.65;4.03;;;;;;;;;;5093029;28;20039;-79
2022/04/28 12:38:07;;;;;;;6.80;4.43;;;;;;;;;;5087407;28;20036;-78
2022/04/28 12:40:43;;;;;;;5.32;4.00;;;;;;;;;;5083124;28;20077;-80
2022/04/28 12:43:10;;;;;;;6.72;4.20;;;;;;;;;;5084906;28;20031;-78
2022/04/28 12:45:46;;;;;;;7.47;4.93;;;;;;;;;;5092244;28;20050;-79
2022/04/28 12:48:28;;;;;;;7.97;4.57;;;;;;;;;;5091671;28;20019;-77
2022/04/28 12:51:15;;;;;;;6.47;3.97;;;;;;;;;;5087747;28;20031;-77
2022/04/28 12:53:48;;;;;;;4.80;4.30;;;;;;;;;;5089716;28;20024;-79
2022/04/28 12:56:16;;;;;;;5.88;4.43;;;;;;;;;;5084527;28;20486;-77
2022/04/28 12:58:48;;;;;;;6.43;3.70;;;;;;;;;;5089231;28;20036;-79
2022/04/28 13:01:19;;;;;;;7.45;4.95;;;;;;;;;;5080852;28;20070;-78
2022/04/28 13:03:58;;;;;;;5.72;3.67;;;;;;;;;;5083840;28;20125;-78
2022/04/28 13:06:30;;;;;;;8.00;3.03;;;;;;;;;;5081684;28;20448;-78
2022/04/28 13:08:58;;;;;;;5.70;3.38;;;;;;;;;;5085598;28;20456;-80
2022/04/28 13:11:28;;;;;;;4.88;3.22;;;;;;;;;;5083869;28;20127;-75
2022/04/28 13:13:55;;;;;;;10.93;4.40;;;;;;;;;;5078100;28;20060;-78
2022/04/28 13:16:22;;;;;;;13.48;5.15;;;;;;;;;;5089527;28;20038;-77
2022/04/28 13:19:04;;;;;;;6.80;3.95;;;;;;;;;;5081055;28;20441;-81
2022/04/28 13:21:31;;;;;;;4.28;3.80;;;;;;;;;;5091782;28;20376;-77
2022/04/28 13:24:01;;;;;;;5.72;4.10;;;;;;;;;;5091726;28;20055;-76
2022/04/28 13:26:29;;;;;;;5.35;4.30;;;;;;;;;;5087203;28;20044;-80
2022/04/28 13:28:56;;;;;;;5.35;3.60;;;;;;;;;;5085317;28;20040;-77
2022/04/28 13:31:26;;;;;;;5.07;3.85;;;;;;;;;;5086561;28;20035;-76
2022/04/28 13:33:58;;;;;;;9.20;3.88;;;;;;;;;;5087112;28;20062;-77
2022/04/28 13:36:29;;;;;;;6.15;3.60;;;;;;;;;;5086137;28;20030;-80
2022/04/28 13:38:57;;;;;;;5.40;4.18;;;;;;;;;;5081248;28;20029;-78
2022/04/28 13:41:25;;;;;;;6.03;4.00;;;;;;;;;;5079239;28;20057;-78
2022/04/28 13:43:51;;;;;;;7.78;4.18;;;;;;;;;;5083747;28;20036;-78
2022/04/28 13:46:19;;;;;;;9.20;4.53;;;;;;;;;;5090739;28;20032;-79
2022/04/28 13:48:45;;;;;;;7.10;3.70;;;;;;;;;;5076394;28;20515;-77
2022/04/28 13:51:11;;;;;;;6.75;4.10;;;;;;;;;;5090118;28;20107;-78
2022/04/28 13:53:37;;;;;;;6.20;3.85;;;;;;;;;;5082781;28;20119;-79
2022/04/28 13:56:07;;;;;;;6.90;3.80;;;;;;;;;;5081683;28;20046;-82
2022/04/28 13:58:35;;;;;;;6.80;3.65;;;;;;;;;;5078095;28;20028;-79
2022/04/28 14:01:01;;;;;;;8.60;3.83;;;;;;;;;;5067064;28;20118;-78
2022/04/28 14:03:39;;;;;;;5.68;3.97;;;;;;;;;;5087955;28;20028;-81
2022/04/28 14:06:06;;;;;;;8.60;4.82;;;;;;;;;;5076507;28;20468;-77
2022/04/28 14:08:33;;;;;;;7.63;4.32;;;;;;;;;;5086270;28;20035;-81
2022/04/28 14:10:59;;;;;;;8.48;5.05;;;;;;;;;;5081080;28;20039;-78
2022/04/28 14:13:25;;;;;;;5.95;5.38;;;;;;;;;;5088732;28;20692;-77
2022/04/28 14:15:54;;;;;;;8.85;4.40;;;;;;;;;;5076917;28;20090;-78
2022/04/28 14:18:30;;;;;;;6.78;4.97;;;;;;;;;;5088216;28;20093;-78
2022/04/28 14:20:59;;;;;;;5.97;4.50;;;;;;;;;;5083158;28;20036;-80
2022/04/28 14:23:26;;;;;;;6.45;4.93;;;;;;;;;;5078813;28;20032;-79
2022/04/28 14:25:54;;;;;;;9.57;5.13;;;;;;;;;;5084060;28;20028;-80
2022/04/28 14:28:23;;;;;;;5.95;4.22;;;;;;;;;;5087859;28;20109;-79
2022/04/28 14:30:51;;;;;;;12.52;4.80;;;;;;;;;;5087901;28;20153;-79
2022/04/28 14:33:43;;;;;;;8.60;5.18;;;;;;;;;;5084141;28;20093;-81
2022/04/28 14:36:09;;;;;;;7.28;5.20;;;;;;;;;;5084080;28;20036;-79
2022/04/28 14:38:38;;;;;;;8.68;5.18;;;;;;;;;;5091432;28;20047;-76
2022/04/28 14:41:05;;;;;;;6.40;4.57;;;;;;;;;;5089188;28;20059;-80
2022/04/28 14:43:32;;;;;;;8.60;4.80;;;;;;;;;;5080548;28;20023;-78
2022/04/28 14:46:05;;;;;;;6.03;4.55;;;;;;;;;;5088938;28;20131;-79
2022/04/28 14:54:12;;;;;;;5.97;4.30;;;;;;;;;;5091036;28;20027;-81
2022/04/28 14:56:38;;;;;;;5.85;4.07;;;;;;;;;;5089888;28;20452;-78
2022/04/28 14:59:07;;;;;;;7.45;4.55;;;;;;;;;;5090553;28;20119;-78
2022/04/28 15:01:37;;;;;;;6.88;4.13;;;;;;;;;;5089097;28;20475;-79
2022/04/28 15:04:20;;;;;;;8.90;4.55;;;;;;;;;;5087154;28;20115;-77
2022/04/28 15:06:46;;;;;;;9.43;5.30;;;;;;;;;;5076621;28;20126;-78
2022/04/28 15:09:13;;;;;;;7.68;5.25;;;;;;;;;;5090051;28;20102;-79
2022/04/28 15:11:40;;;;;;;9.45;5.72;;;;;;;;;;5068127;28;20103;-77
2022/04/28 15:14:09;;;;;;;11.05;5.72;;;;;;;;;;5089732;28;20059;-78
2022/04/28 15:16:34;;;;;;;10.40;5.30;;;;;;;;;;5091384;28;20028;-81
2022/04/28 15:19:00;;;;;;;7.65;5.15;;;;;;;;;;5090477;28;20097;-80
2022/04/28 15:21:25;;;;;;;11.93;6.28;;;;;;;;;;5090353;28;20032;-77
2022/04/28 15:23:51;;;;;;;8.35;5.13;;;;;;;;;;5090132;28;20135;-78
2022/04/28 15:26:18;;;;;;;7.90;5.55;;;;;;;;;;5087976;28;20039;-81